Time;durP1;ratioP1;P1;durP2;ratioP2;P2;SDS_P1;SDS_P2;PMS_P1;PMS_P2;Temp;Humidity;BMP_temperature;BMP_pressure;BME280_temperature;BME280_humidity;BME280_pressure;Samples;Min_cycle;Max_cycle;Signal;HPM_P1;HPM_P2
2022/10/10 00:00:40;;;;;;;0.50;0.50;;;;;;;2.39;100.00;100888.34;4989700;28;20026;-78
2022/10/10 00:03:06;;;;;;;0.40;0.40;;;;;;;2.34;100.00;100899.31;4992918;28;20515;-76
2022/10/10 00:05:33;;;;;;;0.40;0.40;;;;;;;2.30;100.00;100899.66;5008574;28;20132;-75
2022/10/10 00:07:59;;;;;;;0.40;0.40;;;;;;;2.30;100.00;100902.31;5009200;28;20113;-75
2022/10/10 00:10:25;;;;;;;0.50;0.50;;;;;;;2.22;100.00;100896.75;5008412;28;20041;-75
2022/10/10 00:12:53;;;;;;;0.40;0.40;;;;;;;2.08;100.00;100900.47;4995638;28;20425;-75
2022/10/10 00:15:19;;;;;;;0.50;0.50;;;;;;;1.92;100.00;100900.78;4981624;28;20034;-76
2022/10/10 00:17:44;;;;;;;0.40;0.40;;;;;;;1.80;100.00;100904.38;4982375;28;20144;-74
2022/10/10 00:20:12;;;;;;;0.40;0.40;;;;;;;1.73;100.00;100906.66;5009588;28;20022;-75
2022/10/10 00:22:38;;;;;;;0.50;0.50;;;;;;;1.70;100.00;100915.69;5002488;28;20041;-74
2022/10/10 00:25:05;;;;;;;0.40;0.40;;;;;;;1.75;100.00;100916.19;4991040;28;20044;-74
2022/10/10 00:27:31;;;;;;;0.50;0.50;;;;;;;1.74;100.00;100918.94;5005602;28;20038;-75
2022/10/10 00:29:57;;;;;;;0.50;0.50;;;;;;;1.70;100.00;100922.78;4990458;28;20036;-79
2022/10/10 00:32:28;;;;;;;0.40;0.40;;;;;;;1.61;100.00;100919.00;4970145;28;20116;-76
2022/10/10 00:34:54;;;;;;;0.40;0.40;;;;;;;1.68;100.00;100925.53;4987452;28;20526;-76
2022/10/10 00:37:20;;;;;;;0.40;0.40;;;;;;;1.59;100.00;100926.25;4968301;28;20038;-76
2022/10/10 00:39:45;;;;;;;0.40;0.40;;;;;;;1.59;100.00;100931.53;4967015;28;20045;-76
2022/10/10 00:42:12;;;;;;;0.50;0.50;;;;;;;1.64;100.00;100934.69;4971015;28;20038;-76
2022/10/10 00:44:39;;;;;;;0.40;0.40;;;;;;;1.66;100.00;100924.81;4988810;28;20044;-76
2022/10/10 00:47:05;;;;;;;0.47;0.47;;;;;;;1.72;100.00;100924.38;4971823;28;20436;-75
2022/10/10 00:49:31;;;;;;;0.40;0.40;;;;;;;1.80;100.00;100938.81;4986266;28;20065;-76
2022/10/10 00:51:58;;;;;;;0.50;0.50;;;;;;;1.81;100.00;100951.16;4983356;28;20038;-75
2022/10/10 00:54:25;;;;;;;0.40;0.40;;;;;;;1.78;100.00;100946.06;5005840;28;20040;-76
2022/10/10 00:56:55;;;;;;;0.40;0.40;;;;;;;1.71;100.00;100945.66;4970670;28;20033;-75
2022/10/10 00:59:22;;;;;;;0.40;0.40;;;;;;;1.62;100.00;100955.16;5003844;28;20119;-75
2022/10/10 01:01:48;;;;;;;0.40;0.40;;;;;;;1.54;100.00;100949.59;4987371;28;20041;-77
2022/10/10 01:04:30;;;;;;;0.50;0.50;;;;;;;1.61;100.00;100956.09;4987391;28;20029;-76
2022/10/10 01:06:56;;;;;;;0.40;0.40;;;;;;;1.78;100.00;100952.22;5007433;28;20029;-75
2022/10/10 01:09:21;;;;;;;0.40;0.40;;;;;;;1.93;100.00;100960.81;5013633;28;20037;-75
2022/10/10 01:11:54;;;;;;;0.40;0.40;;;;;;;2.02;100.00;100959.31;4986867;28;20511;-76
2022/10/10 01:14:37;;;;;;;0.50;0.50;;;;;;;2.18;100.00;100973.09;4975681;28;20037;-75
2022/10/10 01:17:16;;;;;;;;;;;;;;;2.24;100.00;100974.44;5024850;28;20029;-76
2022/10/10 01:20:13;;;;;;;0.40;0.40;;;;;;;2.14;100.00;100982.22;4999765;28;19917;-75
2022/10/10 01:23:03;;;;;;;0.40;0.40;;;;;;;2.14;100.00;100984.88;4998402;28;20546;-76
2022/10/10 01:25:58;;;;;;;0.40;0.40;;;;;;;2.07;100.00;100970.41;5012224;28;20558;-75
2022/10/10 01:28:59;;;;;;;0.45;0.45;;;;;;;2.02;100.00;100981.34;5006584;28;20068;-76
2022/10/10 01:31:25;;;;;;;0.40;0.40;;;;;;;2.00;100.00;100999.19;5015272;28;20121;-75
2022/10/10 01:34:08;;;;;;;0.40;0.40;;;;;;;1.96;100.00;100997.75;4982385;28;20044;-76
2022/10/10 01:36:38;;;;;;;0.40;0.40;;;;;;;1.82;100.00;100996.09;5030889;28;20044;-76
2022/10/10 01:39:10;;;;;;;0.40;0.40;;;;;;;1.67;100.00;101003.38;4990799;28;20140;-75
2022/10/10 01:41:43;;;;;;;0.45;0.45;;;;;;;1.60;100.00;101011.88;4992946;28;20065;-76
2022/10/10 01:44:08;;;;;;;0.50;0.50;;;;;;;1.48;100.00;101008.31;4986873;28;20724;-75
2022/10/10 01:46:34;;;;;;;0.40;0.40;;;;;;;1.33;100.00;101004.13;4982845;28;20038;-75
2022/10/10 01:49:01;;;;;;;0.50;0.50;;;;;;;1.36;100.00;101012.69;4980643;28;20096;-75
2022/10/10 01:51:29;;;;;;;0.40;0.40;;;;;;;1.46;100.00;101011.09;4979468;28;20037;-75
2022/10/10 01:54:17;;;;;;;0.50;0.50;;;;;;;1.43;100.00;101016.63;5006369;28;20502;-75
2022/10/10 01:57:04;;;;;;;0.50;0.50;;;;;;;1.28;100.00;101013.25;5031523;28;20034;-76
2022/10/10 01:59:45;;;;;;;0.30;0.30;;;;;;;1.12;100.00;101012.66;4995715;28;20049;-75
2022/10/10 02:02:37;;;;;;;0.40;0.40;;;;;;;1.03;100.00;101032.69;5010766;28;20097;-75
2022/10/10 02:05:10;;;;;;;0.50;0.50;;;;;;;1.02;100.00;101035.44;5021585;28;20423;-76
2022/10/10 02:08:00;;;;;;;0.40;0.40;;;;;;;1.06;100.00;101037.78;5005884;28;20080;-76
2022/10/10 02:10:30;;;;;;;0.47;0.47;;;;;;;1.08;100.00;101032.34;5002741;28;20037;-75
2022/10/10 02:12:58;;;;;;;0.40;0.40;;;;;;;1.14;100.00;101050.47;5013404;28;20387;-75
2022/10/10 02:15:31;;;;;;;0.40;0.40;;;;;;;1.09;100.00;101048.13;5007204;28;20386;-75
2022/10/10 02:17:57;;;;;;;0.40;0.40;;;;;;;1.00;100.00;101046.13;4985694;28;20026;-75
2022/10/10 02:20:25;;;;;;;0.40;0.40;;;;;;;0.85;100.00;101047.22;5009519;28;20033;-76
2022/10/10 02:22:51;;;;;;;0.40;0.40;;;;;;;0.86;100.00;101048.91;4984129;28;20026;-77
2022/10/10 02:25:21;;;;;;;0.50;0.50;;;;;;;0.86;100.00;101060.31;4969282;28;20030;-76
2022/10/10 02:28:02;;;;;;;0.40;0.40;;;;;;;0.78;100.00;101061.81;4993236;28;20026;-77
2022/10/10 02:30:28;;;;;;;0.40;0.40;;;;;;;0.69;100.00;101062.44;5006577;28;20048;-75
2022/10/10 02:33:00;;;;;;;0.50;0.50;;;;;;;0.74;100.00;101058.53;5006849;28;20037;-75
2022/10/10 02:35:33;;;;;;;0.40;0.40;;;;;;;0.83;100.00;101071.13;5006308;28;20026;-75
2022/10/10 02:38:00;;;;;;;0.40;0.40;;;;;;;0.83;100.00;101068.47;4967816;28;20483;-76
2022/10/10 02:40:30;;;;;;;0.50;0.50;;;;;;;0.82;100.00;101064.16;5009725;28;20034;-75
2022/10/10 02:42:59;;;;;;;0.50;0.50;;;;;;;0.88;100.00;101082.25;4979434;28;20030;-76
2022/10/10 02:45:24;;;;;;;0.40;0.40;;;;;;;0.85;100.00;101089.56;4971169;28;20064;-76
2022/10/10 02:47:51;;;;;;;0.40;0.40;;;;;;;0.78;100.00;101078.53;5008059;28;20069;-75
2022/10/10 02:50:17;;;;;;;0.50;0.50;;;;;;;0.79;100.00;101082.88;5002296;28;20647;-76
2022/10/10 02:52:42;;;;;;;0.40;0.40;;;;;;;0.86;100.00;101088.59;4990050;28;20132;-75
2022/10/10 02:55:08;;;;;;;0.40;0.40;;;;;;;1.01;100.00;101090.19;4994944;28;20037;-75
2022/10/10 02:57:34;;;;;;;0.40;0.40;;;;;;;1.07;100.00;101078.34;4991530;28;20038;-76
2022/10/10 03:00:00;;;;;;;0.40;0.40;;;;;;;1.17;100.00;101082.03;5011506;28;20034;-75
2022/10/10 03:02:26;;;;;;;0.50;0.50;;;;;;;1.15;100.00;101086.59;4974203;28;20053;-75
2022/10/10 03:04:52;;;;;;;0.40;0.40;;;;;;;1.11;100.00;101098.34;4995682;28;20128;-75
2022/10/10 03:07:18;;;;;;;0.40;0.40;;;;;;;1.22;100.00;101109.06;5010863;28;20883;-74
2022/10/10 03:09:43;;;;;;;0.40;0.40;;;;;;;1.30;100.00;101104.06;4988887;28;20034;-74
2022/10/10 03:12:09;;;;;;;0.40;0.40;;;;;;;1.34;100.00;101109.97;4988467;28;20042;-75
2022/10/10 03:14:35;;;;;;;0.40;0.40;;;;;;;1.41;100.00;101124.50;5009486;28;20038;-76
2022/10/10 03:17:00;;;;;;;0.40;0.40;;;;;;;1.54;100.00;101125.34;5006048;28;20033;-75
2022/10/10 03:19:26;;;;;;;0.40;0.40;;;;;;;1.53;100.00;101118.34;4987171;28;20026;-74
2022/10/10 03:21:51;;;;;;;0.50;0.50;;;;;;;1.71;100.00;101129.44;4992134;28;20029;-74
2022/10/10 03:24:17;;;;;;;0.40;0.40;;;;;;;1.76;100.00;101126.44;4988841;28;20034;-77
2022/10/10 03:26:43;;;;;;;0.50;0.50;;;;;;;1.84;100.00;101139.16;4980665;28;20030;-77
2022/10/10 03:29:08;;;;;;;0.47;0.47;;;;;;;1.93;100.00;101141.13;5013198;28;20107;-76
2022/10/10 03:31:34;;;;;;;0.40;0.40;;;;;;;2.06;100.00;101123.38;5000593;28;20558;-75
2022/10/10 03:34:00;;;;;;;0.40;0.40;;;;;;;2.41;100.00;101141.19;5017938;28;20026;-75
2022/10/10 03:36:26;;;;;;;0.40;0.40;;;;;;;2.78;100.00;101133.09;4991985;28;20038;-75
2022/10/10 03:38:51;;;;;;;0.40;0.40;;;;;;;3.08;100.00;101143.22;4979044;28;20041;-75
2022/10/10 03:41:17;;;;;;;0.40;0.40;;;;;;;3.09;100.00;101143.06;5014297;28;20080;-76
2022/10/10 03:43:43;;;;;;;0.40;0.40;;;;;;;3.00;100.00;101146.44;4981113;28;20377;-75
2022/10/10 03:46:08;;;;;;;0.40;0.40;;;;;;;3.05;100.00;101138.13;4979832;28;20063;-74
2022/10/10 03:48:34;;;;;;;0.40;0.40;;;;;;;3.21;100.00;101151.09;5005989;28;20041;-75
2022/10/10 03:51:00;;;;;;;0.40;0.40;;;;;;;3.23;100.00;101165.09;5000829;28;20045;-76
2022/10/10 03:53:26;;;;;;;0.40;0.40;;;;;;;3.24;100.00;101169.44;5010889;28;20057;-74
2022/10/10 03:55:52;;;;;;;0.40;0.40;;;;;;;3.22;100.00;101169.56;5003191;28;20040;-74
2022/10/10 03:58:18;;;;;;;0.50;0.50;;;;;;;3.23;100.00;101165.09;5007942;28;20041;-76
2022/10/10 04:00:44;;;;;;;0.40;0.40;;;;;;;3.08;100.00;101178.59;4977377;28;20037;-74
2022/10/10 04:03:09;;;;;;;0.32;0.32;;;;;;;3.18;100.00;101176.09;5001779;28;20037;-75
2022/10/10 04:05:37;;;;;;;0.40;0.40;;;;;;;3.21;100.00;101177.66;5002247;28;20378;-75
2022/10/10 04:08:03;;;;;;;0.40;0.40;;;;;;;3.20;100.00;101178.59;5006151;28;20537;-74
2022/10/10 04:10:29;;;;;;;0.40;0.40;;;;;;;3.04;100.00;101182.47;5013160;28;20042;-75
2022/10/10 04:12:55;;;;;;;0.40;0.40;;;;;;;2.84;100.00;101177.81;4989049;28;20083;-74
2022/10/10 04:15:26;;;;;;;0.40;0.40;;;;;;;2.77;100.00;101200.47;5022660;28;20480;-76
2022/10/10 04:17:51;;;;;;;0.40;0.40;;;;;;;2.58;100.00;101196.50;4998313;28;20030;-74
2022/10/10 04:20:17;;;;;;;0.40;0.40;;;;;;;2.36;100.00;101201.72;5004415;28;20377;-76
2022/10/10 04:22:43;;;;;;;0.50;0.50;;;;;;;2.22;100.00;101209.81;5010634;28;20082;-74
2022/10/10 04:25:10;;;;;;;0.40;0.40;;;;;;;2.06;100.00;101210.06;5001524;28;20029;-75
2022/10/10 04:27:36;;;;;;;0.40;0.40;;;;;;;1.96;100.00;101212.56;5013751;28;20033;-74
2022/10/10 04:30:02;;;;;;;0.47;0.47;;;;;;;1.87;100.00;101227.28;4993711;28;20107;-75
2022/10/10 04:32:27;;;;;;;0.40;0.40;;;;;;;1.68;100.00;101226.88;5015363;28;20511;-75
2022/10/10 04:34:53;;;;;;;0.40;0.40;;;;;;;1.67;100.00;101234.00;4978854;28;20037;-75
2022/10/10 04:37:19;;;;;;;0.40;0.40;;;;;;;1.74;100.00;101237.91;4975626;28;21925;-77
2022/10/10 04:39:44;;;;;;;0.40;0.40;;;;;;;1.95;100.00;101240.84;5010223;28;20030;-75
2022/10/10 04:42:10;;;;;;;0.40;0.40;;;;;;;2.03;100.00;101253.56;4996892;28;20030;-76
2022/10/10 04:44:36;;;;;;;0.40;0.40;;;;;;;2.03;100.00;101253.56;4989575;28;20124;-75
2022/10/10 04:47:04;;;;;;;0.50;0.50;;;;;;;2.22;100.00;101254.91;4999380;28;20033;-76
2022/10/10 04:49:30;;;;;;;0.40;0.40;;;;;;;2.42;100.00;101265.81;5013944;28;20034;-74
2022/10/10 04:51:56;;;;;;;0.40;0.40;;;;;;;2.48;100.00;101255.69;4995492;28;20033;-75
2022/10/10 04:54:21;;;;;;;0.40;0.40;;;;;;;2.51;100.00;101266.09;5015651;28;20025;-75
2022/10/10 04:56:49;;;;;;;0.40;0.40;;;;;;;2.62;100.00;101261.72;4987877;28;20345;-75
2022/10/10 04:59:15;;;;;;;0.40;0.40;;;;;;;2.62;100.00;101269.69;4999120;28;20034;-76
2022/10/10 05:01:43;;;;;;;0.40;0.40;;;;;;;2.72;100.00;101271.66;5012490;28;20092;-74
2022/10/10 05:04:09;;;;;;;0.40;0.40;;;;;;;2.87;100.00;101275.84;5002206;28;20056;-75
2022/10/10 05:06:35;;;;;;;0.40;0.40;;;;;;;3.02;100.00;101272.03;5010344;28;20475;-77
2022/10/10 05:09:00;;;;;;;0.40;0.40;;;;;;;3.02;100.00;101274.72;4973864;28;20088;-74
2022/10/10 05:11:26;;;;;;;0.40;0.40;;;;;;;2.90;100.00;101285.38;4994873;28;20391;-76
2022/10/10 05:13:52;;;;;;;0.40;0.40;;;;;;;2.72;100.00;101293.72;5006690;28;20498;-76
2022/10/10 05:16:20;;;;;;;0.40;0.40;;;;;;;2.67;100.00;101287.91;5017978;28;20076;-76
2022/10/10 05:18:48;;;;;;;0.40;0.40;;;;;;;2.69;100.00;101290.47;4989290;28;20029;-75
2022/10/10 05:21:14;;;;;;;0.50;0.50;;;;;;;2.62;100.00;101301.53;4977662;28;20042;-76
2022/10/10 05:23:42;;;;;;;0.40;0.40;;;;;;;2.50;100.00;101297.09;5004992;28;20496;-75
2022/10/10 05:26:08;;;;;;;0.40;0.40;;;;;;;2.31;100.00;101294.09;4992408;28;20041;-76
2022/10/10 05:28:35;;;;;;;0.40;0.40;;;;;;;2.26;100.00;101305.00;4979636;28;20085;-76
2022/10/10 05:31:02;;;;;;;0.40;0.40;;;;;;;2.11;100.00;101303.44;5022510;28;20034;-75
2022/10/10 05:33:27;;;;;;;0.40;0.40;;;;;;;2.07;100.00;101304.63;4993097;28;20551;-75
2022/10/10 05:36:01;;;;;;;0.40;0.40;;;;;;;1.90;100.00;101305.78;5014429;28;20033;-75
2022/10/10 05:38:26;;;;;;;0.40;0.40;;;;;;;1.94;100.00;101331.16;4974907;28;20029;-76
2022/10/10 05:40:53;;;;;;;0.45;0.45;;;;;;;1.92;100.00;101330.41;5001216;28;20464;-75
2022/10/10 05:43:19;;;;;;;0.40;0.40;;;;;;;1.93;100.00;101330.31;5011696;28;20038;-74
2022/10/10 05:45:44;;;;;;;0.40;0.40;;;;;;;1.96;100.00;101345.16;4986800;28;20049;-73
2022/10/10 05:48:10;;;;;;;0.40;0.40;;;;;;;1.87;100.00;101343.13;5005251;28;20030;-75
2022/10/10 05:50:38;;;;;;;0.40;0.40;;;;;;;1.80;100.00;101352.44;4994248;28;20034;-75
2022/10/10 05:53:05;;;;;;;0.40;0.40;;;;;;;1.71;100.00;101362.72;4990948;28;20065;-74
2022/10/10 05:55:31;;;;;;;0.40;0.40;;;;;;;1.67;100.00;101358.59;5001579;28;20033;-74
2022/10/10 05:57:59;;;;;;;0.40;0.40;;;;;;;1.65;100.00;101354.34;5009015;28;20033;-73
2022/10/10 06:00:25;;;;;;;0.40;0.40;;;;;;;1.62;100.00;101370.47;4993053;28;20029;-74
2022/10/10 06:02:51;;;;;;;0.40;0.40;;;;;;;1.62;100.00;101379.25;4990614;28;20050;-76
2022/10/10 06:05:17;;;;;;;0.50;0.50;;;;;;;1.66;100.00;101379.88;5011674;28;20080;-77
2022/10/10 06:07:42;;;;;;;0.50;0.50;;;;;;;1.59;100.00;101376.81;4975343;28;20037;-74
2022/10/10 06:10:09;;;;;;;0.50;0.50;;;;;;;1.66;100.00;101377.25;4988421;28;20061;-74
2022/10/10 06:12:34;;;;;;;0.40;0.40;;;;;;;1.71;100.00;101391.03;5013938;28;20481;-75
2022/10/10 06:15:00;;;;;;;0.40;0.40;;;;;;;1.72;100.00;101388.28;5017668;28;20030;-76
2022/10/10 06:17:25;;;;;;;0.50;0.50;;;;;;;1.84;100.00;101396.38;4989657;28;20022;-75
2022/10/10 06:19:51;;;;;;;0.60;0.60;;;;;;;1.84;100.00;101397.22;5010594;28;20150;-76
2022/10/10 06:22:17;;;;;;;0.50;0.50;;;;;;;1.68;100.00;101402.69;4990270;28;20073;-77
2022/10/10 06:24:42;;;;;;;0.40;0.40;;;;;;;1.71;100.00;101407.78;4976384;28;20033;-77
2022/10/10 06:27:08;;;;;;;0.50;0.50;;;;;;;1.71;100.00;101413.09;5014551;28;20049;-76
2022/10/10 06:29:33;;;;;;;0.50;0.50;;;;;;;1.71;100.00;101410.44;5004845;28;20162;-75
2022/10/10 06:31:59;;;;;;;0.50;0.50;;;;;;;1.69;100.00;101422.09;4997493;28;20073;-75
2022/10/10 06:34:25;;;;;;;0.50;0.50;;;;;;;1.63;100.00;101430.47;4980557;28;20055;-75
2022/10/10 06:36:50;;;;;;;0.40;0.40;;;;;;;1.59;100.00;101428.97;4989992;28;20084;-76
2022/10/10 06:39:17;;;;;;;0.40;0.40;;;;;;;1.72;100.00;101430.72;5004513;28;20426;-75
2022/10/10 06:41:42;;;;;;;0.50;0.50;;;;;;;1.81;100.00;101441.66;5021214;28;20037;-75
2022/10/10 06:44:08;;;;;;;0.40;0.40;;;;;;;1.75;100.00;101443.75;4996112;28;20368;-76
2022/10/10 06:46:36;;;;;;;0.40;0.40;;;;;;;1.69;100.00;101448.59;4989613;28;20480;-74
2022/10/10 06:49:04;;;;;;;0.40;0.40;;;;;;;1.64;100.00;101459.53;5015766;28;20034;-75
2022/10/10 06:51:30;;;;;;;0.40;0.40;;;;;;;1.56;100.00;101455.66;5006712;28;20038;-75
2022/10/10 06:53:57;;;;;;;0.40;0.40;;;;;;;1.51;100.00;101466.59;4995767;28;20044;-74
2022/10/10 06:56:23;;;;;;;0.40;0.40;;;;;;;1.43;100.00;101469.75;5013873;28;20249;-75
2022/10/10 06:58:49;;;;;;;0.45;0.45;;;;;;;1.40;100.00;101477.00;4977778;28;20485;-77
2022/10/10 07:01:17;;;;;;;0.50;0.50;;;;;;;1.40;100.00;101484.97;4993263;28;20806;-75
2022/10/10 07:03:43;;;;;;;0.50;0.50;;;;;;;1.35;100.00;101487.06;4999139;28;20045;-77
2022/10/10 07:06:10;;;;;;;0.40;0.40;;;;;;;1.45;100.00;101494.31;4988279;28;20432;-75
2022/10/10 07:08:36;;;;;;;0.50;0.50;;;;;;;1.51;100.00;101493.94;5001505;28;20029;-76
2022/10/10 07:11:02;;;;;;;0.50;0.50;;;;;;;1.63;100.00;101497.59;5005491;28;20034;-76
2022/10/10 07:13:28;;;;;;;0.40;0.40;;;;;;;1.73;100.00;101504.00;4973863;28;20095;-76
2022/10/10 07:15:53;;;;;;;0.40;0.40;;;;;;;1.84;100.00;101500.63;5007657;28;20056;-78
2022/10/10 07:18:19;;;;;;;0.45;0.45;;;;;;;1.94;100.00;101506.19;5017054;28;20387;-74
2022/10/10 07:20:45;;;;;;;0.50;0.50;;;;;;;1.99;100.00;101509.38;5007291;28;20065;-75
2022/10/10 07:23:11;;;;;;;0.50;0.50;;;;;;;1.96;100.00;101512.25;5009825;28;20467;-75
2022/10/10 07:25:38;;;;;;;0.50;0.50;;;;;;;2.02;100.00;101521.59;4977133;28;20049;-76
2022/10/10 07:28:05;;;;;;;0.50;0.50;;;;;;;2.05;100.00;101522.22;5004830;28;20026;-75
2022/10/10 07:30:31;;;;;;;0.50;0.50;;;;;;;2.16;100.00;101527.66;4987642;28;20035;-75
2022/10/10 07:32:56;;;;;;;0.50;0.50;;;;;;;2.22;100.00;101534.34;4992715;28;20410;-75
2022/10/10 07:35:22;;;;;;;0.40;0.40;;;;;;;2.29;100.00;101540.97;4984606;28;20069;-74
2022/10/10 07:37:49;;;;;;;0.50;0.50;;;;;;;2.40;100.00;101538.44;4996295;28;20578;-76
2022/10/10 07:40:15;;;;;;;0.50;0.50;;;;;;;2.63;100.00;101542.19;5001444;28;20483;-75
2022/10/10 07:42:41;;;;;;;0.50;0.50;;;;;;;2.95;100.00;101554.19;4981372;28;20041;-75
2022/10/10 07:45:08;;;;;;;0.50;0.50;;;;;;;3.07;100.00;101550.69;4977989;28;20500;-75
2022/10/10 07:47:34;;;;;;;0.40;0.40;;;;;;;3.12;100.00;101556.50;4990641;28;20029;-74
2022/10/10 07:50:00;;;;;;;0.40;0.40;;;;;;;3.15;100.00;101560.75;5013284;28;20060;-73
2022/10/10 07:52:25;;;;;;;0.45;0.45;;;;;;;3.16;100.00;101558.00;4995401;28;20033;-74
2022/10/10 07:54:51;;;;;;;0.55;0.55;;;;;;;3.19;100.00;101560.44;5014023;28;20030;-74
2022/10/10 07:57:17;;;;;;;0.40;0.40;;;;;;;3.24;100.00;101560.97;4984948;28;20053;-76
2022/10/10 07:59:44;;;;;;;0.60;0.60;;;;;;;3.40;100.00;101575.84;5015931;28;20076;-73
2022/10/10 08:02:10;;;;;;;0.40;0.40;;;;;;;3.50;100.00;101574.22;4973791;28;20034;-74
2022/10/10 08:04:36;;;;;;;0.50;0.50;;;;;;;3.59;100.00;101575.34;5014307;28;20045;-74
2022/10/10 08:07:02;;;;;;;0.40;0.40;;;;;;;3.75;100.00;101586.59;5001708;28;20030;-77
2022/10/10 08:09:28;;;;;;;0.50;0.50;;;;;;;3.99;100.00;101591.06;4994997;28;20037;-78
2022/10/10 08:11:55;;;;;;;0.50;0.50;;;;;;;4.29;100.00;101590.63;4992447;28;20197;-76
2022/10/10 08:14:20;;;;;;;0.60;0.60;;;;;;;5.67;100.00;101586.09;5001227;28;20284;-73
2022/10/10 08:16:46;;;;;;;0.60;0.60;;;;;;;7.29;100.00;101604.69;5008847;28;20041;-76
2022/10/10 08:19:11;;;;;;;0.50;0.50;;;;;;;7.24;100.00;101605.06;4995895;28;20470;-76
2022/10/10 08:21:37;;;;;;;0.60;0.60;;;;;;;8.20;100.00;101614.38;4982300;28;20413;-76
2022/10/10 08:24:03;;;;;;;0.60;0.60;;;;;;;9.61;100.00;101613.75;4992863;28;20412;-76
2022/10/10 08:26:29;;;;;;;0.60;0.60;;;;;;;10.55;98.60;101626.88;4993850;28;20053;-76
2022/10/10 08:28:55;;;;;;;0.60;0.60;;;;;;;11.21;95.72;101625.53;5015191;28;20080;-75
2022/10/10 08:31:23;;;;;;;0.70;0.70;;;;;;;11.64;92.42;101626.41;5006828;28;22048;-78
2022/10/10 08:33:50;;;;;;;0.65;0.65;;;;;;;12.13;92.04;101623.94;4967998;28;20037;-76
2022/10/10 08:36:19;;;;;;;0.60;0.60;;;;;;;12.78;90.80;101639.38;5005502;28;20044;-77
2022/10/10 08:38:46;;;;;;;0.50;0.50;;;;;;;13.40;89.04;101644.22;4975028;28;20463;-76
2022/10/10 08:41:24;;;;;;;0.50;0.50;;;;;;;13.03;91.39;101642.88;4991628;28;20041;-77
2022/10/10 08:43:53;;;;;;;0.60;0.60;;;;;;;12.23;95.79;101646.22;5002318;28;20124;-76
2022/10/10 08:46:53;;;;;;;0.70;0.70;;;;;;;13.58;90.79;101646.69;5001555;28;20129;-76
2022/10/10 08:49:29;;;;;;;0.60;0.60;;;;;;;14.79;87.00;101661.59;5014961;28;20042;-78
2022/10/10 08:52:02;;;;;;;0.60;0.60;;;;;;;15.46;84.47;101656.22;5021644;28;20105;-76
2022/10/10 08:54:29;;;;;;;0.55;0.55;;;;;;;15.92;82.64;101664.19;4981472;28;20057;-76
2022/10/10 08:56:58;;;;;;;0.70;0.70;;;;;;;16.19;81.45;101669.94;4996162;28;20029;-76
2022/10/10 08:59:28;;;;;;;0.80;0.80;;;;;;;16.47;79.86;101670.03;5010050;28;20121;-75
2022/10/10 09:02:03;;;;;;;0.80;0.80;;;;;;;16.80;81.79;101677.72;4975987;28;20026;-75
2022/10/10 09:04:32;;;;;;;0.70;0.70;;;;;;;17.11;78.28;101691.78;5008745;28;20058;-76
2022/10/10 09:07:10;;;;;;;0.70;0.70;;;;;;;16.83;77.30;101685.47;4993599;28;20067;-75
2022/10/10 09:09:47;;;;;;;0.70;0.70;;;;;;;16.74;78.63;101686.59;5001509;28;20103;-77
2022/10/10 09:12:28;;;;;;;0.60;0.60;;;;;;;16.94;77.82;101693.13;5024033;28;20109;-76
2022/10/10 09:15:26;;;;;;;0.70;0.70;;;;;;;17.44;77.72;101696.66;5017977;28;20067;-76
2022/10/10 09:18:17;;;;;;;0.70;0.70;;;;;;;18.00;76.11;101703.91;4983868;28;20033;-76
2022/10/10 09:21:11;;;;;;;0.65;0.65;;;;;;;18.50;74.33;101703.66;4999213;28;20030;-76
2022/10/10 09:23:41;;;;;;;0.70;0.70;;;;;;;18.58;71.74;101709.78;4984735;28;20045;-77
2022/10/10 09:26:11;;;;;;;0.70;0.70;;;;;;;18.67;72.76;101713.97;5014252;28;20052;-75
2022/10/10 09:29:15;;;;;;;0.70;0.70;;;;;;;18.94;71.89;101703.16;5010101;28;20037;-74
2022/10/10 09:31:43;;;;;;;0.95;0.95;;;;;;;19.26;73.35;101723.28;4998167;28;20041;-78
2022/10/10 09:34:35;;;;;;;0.70;0.70;;;;;;;19.48;72.05;101723.94;4995600;28;20052;-76
2022/10/10 09:37:02;;;;;;;1.80;1.77;;;;;;;19.91;72.28;101728.09;4995988;28;20479;-76
2022/10/10 09:39:34;;;;;;;0.60;0.60;;;;;;;20.46;73.64;101731.22;4983666;28;20049;-75
2022/10/10 09:42:02;;;;;;;0.70;0.70;;;;;;;20.55;69.36;101727.22;4998838;28;20037;-75
2022/10/10 09:44:28;;;;;;;0.63;0.63;;;;;;;20.40;71.00;101729.34;4974628;28;20068;-75
2022/10/10 09:46:54;;;;;;;0.70;0.70;;;;;;;20.45;70.29;101732.28;5023398;28;20391;-76
2022/10/10 09:49:20;;;;;;;1.13;1.08;;;;;;;20.58;69.70;101736.88;5001729;28;20037;-75
2022/10/10 09:51:49;;;;;;;4.50;4.28;;;;;;;21.01;68.21;101737.03;5012783;28;20025;-75
2022/10/10 09:54:17;;;;;;;1.73;1.63;;;;;;;21.10;67.41;101734.03;4983371;28;20036;-75
2022/10/10 09:56:53;;;;;;;4.15;1.30;;;;;;;21.01;65.53;101738.91;5000242;28;20026;-75
2022/10/10 09:59:51;;;;;;;2.97;1.45;;;;;;;21.16;69.41;101746.78;4987451;28;20025;-76
2022/10/10 10:02:25;;;;;;;4.88;1.30;;;;;;;21.19;67.84;101736.25;5000925;28;20061;-75
2022/10/10 10:04:52;;;;;;;11.00;1.65;;;;;;;21.14;70.01;101746.19;5015470;28;20566;-76
2022/10/10 10:07:31;;;;;;;9.65;2.05;;;;;;;21.39;67.85;101755.28;5017740;28;20468;-76
2022/10/10 10:10:16;;;;;;;10.88;2.67;;;;;;;21.63;67.98;101756.31;4987044;28;20029;-78
2022/10/10 10:12:44;;;;;;;7.50;2.58;;;;;;;21.76;69.77;101749.88;4998019;28;20055;-76
2022/10/10 10:15:15;;;;;;;10.18;2.20;;;;;;;22.26;69.21;101759.91;5022381;28;20042;-76
2022/10/10 10:17:41;;;;;;;15.18;2.72;;;;;;;22.65;69.08;101764.03;4991144;28;20037;-76
2022/10/10 10:20:28;;;;;;;9.57;2.33;;;;;;;22.90;70.24;101760.28;4975064;28;20029;-76
2022/10/10 10:22:54;;;;;;;13.02;2.70;;;;;;;23.17;70.44;101760.75;5022583;28;20041;-76
2022/10/10 10:25:33;;;;;;;11.18;2.42;;;;;;;23.21;64.68;101762.78;4974733;28;20472;-76
2022/10/10 10:28:14;;;;;;;8.45;2.25;;;;;;;22.83;65.58;101763.13;5026111;28;20464;-76
2022/10/10 10:30:41;;;;;;;10.93;2.58;;;;;;;22.59;64.81;101770.41;4998539;28;20040;-76
2022/10/10 10:33:16;;;;;;;12.73;2.75;;;;;;;22.35;66.09;101781.25;4992552;28;20128;-75
2022/10/10 10:35:56;;;;;;;9.68;2.17;;;;;;;22.66;65.20;101786.78;5014484;28;20029;-75
2022/10/10 10:38:33;;;;;;;16.20;2.70;;;;;;;22.67;63.13;101800.25;4980547;28;20026;-76
2022/10/10 10:41:11;;;;;;;16.67;3.63;;;;;;;22.70;64.63;101787.97;5008377;28;20029;-76
2022/10/10 10:43:52;;;;;;;15.88;3.30;;;;;;;22.90;65.32;101791.28;5006289;28;20076;-77
2022/10/10 10:46:24;;;;;;;16.58;3.90;;;;;;;23.24;63.45;101795.25;5008811;28;20030;-75
2022/10/10 10:49:08;;;;;;;11.27;3.30;;;;;;;22.61;63.81;101795.69;5002197;28;20038;-76
2022/10/10 10:51:42;;;;;;;9.45;2.40;;;;;;;20.82;66.66;101787.19;5005719;28;20022;-77
2022/10/10 10:54:07;;;;;;;10.35;3.58;;;;;;;18.38;71.17;101807.75;5014710;28;20116;-76
2022/10/10 10:56:45;;;;;;;12.88;2.75;;;;;;;18.33;78.76;101810.22;5014102;28;20192;-76
2022/10/10 10:59:44;;;;;;;16.95;2.72;;;;;;;19.87;75.30;101809.56;5011323;28;20037;-75
2022/10/10 11:02:10;;;;;;;13.70;3.05;;;;;;;19.74;73.75;101813.13;5012032;28;20034;-76
2022/10/10 11:05:01;;;;;;;7.10;2.20;;;;;;;19.31;74.42;101799.88;5022399;28;20488;-76
2022/10/10 11:07:34;;;;;;;16.02;2.42;;;;;;;20.20;74.35;101819.56;5014713;28;20034;-76
2022/10/10 11:10:14;;;;;;;15.82;3.53;;;;;;;20.03;74.71;101824.66;5017439;28;20029;-76
2022/10/10 11:12:58;;;;;;;17.50;2.90;;;;;;;20.34;71.25;101825.81;5007022;28;20049;-76
2022/10/10 11:15:29;;;;;;;19.60;4.15;;;;;;;20.37;64.42;101807.09;4994404;28;20487;-76
2022/10/10 11:17:57;;;;;;;9.25;2.50;;;;;;;20.44;64.89;101823.47;5012175;28;20034;-77
2022/10/10 11:20:26;;;;;;;11.73;3.28;;;;;;;19.35;67.06;101815.84;4996525;28;20037;-77
2022/10/10 11:23:17;;;;;;;12.77;2.53;;;;;;;18.32;75.16;101822.16;5033921;28;20467;-76
2022/10/10 11:25:46;;;;;;;12.18;2.72;;;;;;;17.03;77.99;101837.81;5024101;28;20030;-76
2022/10/10 11:28:19;;;;;;;9.93;2.22;;;;;;;16.08;86.80;101822.34;4984603;28;20042;-75
2022/10/10 11:30:53;;;;;;;18.40;2.65;;;;;;;15.80;90.47;101825.69;5019278;28;20084;-77
2022/10/10 11:33:23;;;;;;;13.55;2.30;;;;;;;15.82;88.16;101839.91;4994781;28;20351;-77
2022/10/10 11:36:02;;;;;;;12.07;2.22;;;;;;;15.68;90.48;101841.53;5010083;28;20037;-76